sensor_id;sensor_type;location;lat;lon;timestamp;temperature;humidity
54431;DHT22;40342;52.998;5.862;2023-09-19T00:00:26;13.70;99.90
54431;DHT22;40342;52.998;5.862;2023-09-19T00:02:56;13.60;99.90
54431;DHT22;40342;52.998;5.862;2023-09-19T00:05:23;13.70;99.90
54431;DHT22;40342;52.998;5.862;2023-09-19T00:07:50;13.60;99.90
54431;DHT22;40342;52.998;5.862;2023-09-19T00:10:16;13.60;99.90
54431;DHT22;40342;52.998;5.862;2023-09-19T00:12:42;13.60;99.90
54431;DHT22;40342;52.998;5.862;2023-09-19T00:15:08;13.60;99.90
54431;DHT22;40342;52.998;5.862;2023-09-19T00:17:35;13.60;99.90
54431;DHT22;40342;52.998;5.862;2023-09-19T00:20:03;13.60;99.90
54431;DHT22;40342;52.998;5.862;2023-09-19T00:22:32;13.50;99.90
54431;DHT22;40342;52.998;5.862;2023-09-19T00:24:58;13.50;99.90
54431;DHT22;40342;52.998;5.862;2023-09-19T00:27:23;13.50;99.90
54431;DHT22;40342;52.998;5.862;2023-09-19T00:29:48;13.50;99.90
54431;DHT22;40342;52.998;5.862;2023-09-19T00:32:14;13.50;99.90
54431;DHT22;40342;52.998;5.862;2023-09-19T00:34:39;13.40;99.90
54431;DHT22;40342;52.998;5.862;2023-09-19T00:37:05;13.40;99.90
54431;DHT22;40342;52.998;5.862;2023-09-19T00:39:30;13.40;99.90
54431;DHT22;40342;52.998;5.862;2023-09-19T00:41:57;13.40;99.90
54431;DHT22;40342;52.998;5.862;2023-09-19T00:44:22;13.30;99.90
54431;DHT22;40342;52.998;5.862;2023-09-19T00:46:48;13.30;99.90
54431;DHT22;40342;52.998;5.862;2023-09-19T00:49:15;13.30;99.90
54431;DHT22;40342;52.998;5.862;2023-09-19T00:51:41;13.20;99.90
54431;DHT22;40342;52.998;5.862;2023-09-19T00:54:11;13.20;99.90
54431;DHT22;40342;52.998;5.862;2023-09-19T00:56:38;13.20;99.90
54431;DHT22;40342;52.998;5.862;2023-09-19T00:59:06;13.20;99.90
54431;DHT22;40342;52.998;5.862;2023-09-19T01:01:31;13.30;99.90
54431;DHT22;40342;52.998;5.862;2023-09-19T01:03:58;13.10;99.90
54431;DHT22;40342;52.998;5.862;2023-09-19T01:06:23;13.10;99.90
54431;DHT22;40342;52.998;5.862;2023-09-19T01:08:49;13.10;99.90
54431;DHT22;40342;52.998;5.862;2023-09-19T01:13:55;13.20;99.90
54431;DHT22;40342;52.998;5.862;2023-09-19T01:16:31;13.20;99.90
54431;DHT22;40342;52.998;5.862;2023-09-19T01:19:05;13.20;99.90
54431;DHT22;40342;52.998;5.862;2023-09-19T01:21:39;13.20;99.90
54431;DHT22;40342;52.998;5.862;2023-09-19T01:24:10;13.10;99.90
54431;DHT22;40342;52.998;5.862;2023-09-19T01:26:51;13.20;99.90
54431;DHT22;40342;52.998;5.862;2023-09-19T01:31:57;13.10;99.90
54431;DHT22;40342;52.998;5.862;2023-09-19T01:34:24;13.10;99.90
54431;DHT22;40342;52.998;5.862;2023-09-19T01:36:52;13.00;99.90
54431;DHT22;40342;52.998;5.862;2023-09-19T01:39:17;13.00;99.90
54431;DHT22;40342;52.998;5.862;2023-09-19T01:41:47;13.10;99.90
54431;DHT22;40342;52.998;5.862;2023-09-19T01:44:25;13.00;99.90
54431;DHT22;40342;52.998;5.862;2023-09-19T01:46:52;13.10;99.90
54431;DHT22;40342;52.998;5.862;2023-09-19T01:49:31;13.00;99.90
54431;DHT22;40342;52.998;5.862;2023-09-19T01:52:04;13.00;99.90
54431;DHT22;40342;52.998;5.862;2023-09-19T01:54:32;13.00;99.90
54431;DHT22;40342;52.998;5.862;2023-09-19T01:57:00;13.00;99.90
54431;DHT22;40342;52.998;5.862;2023-09-19T01:59:31;13.00;99.90
54431;DHT22;40342;52.998;5.862;2023-09-19T02:01:59;13.00;99.90
54431;DHT22;40342;52.998;5.862;2023-09-19T02:04:26;13.10;99.90
54431;DHT22;40342;52.998;5.862;2023-09-19T02:06:52;13.10;99.90
54431;DHT22;40342;52.998;5.862;2023-09-19T02:09:18;13.10;99.90
54431;DHT22;40342;52.998;5.862;2023-09-19T02:11:43;13.20;99.90
54431;DHT22;40342;52.998;5.862;2023-09-19T02:14:09;13.20;99.90
54431;DHT22;40342;52.998;5.862;2023-09-19T02:16:35;13.20;99.90
54431;DHT22;40342;52.998;5.862;2023-09-19T02:19:00;13.20;99.90
54431;DHT22;40342;52.998;5.862;2023-09-19T02:21:26;13.20;99.90
54431;DHT22;40342;52.998;5.862;2023-09-19T02:23:55;13.20;99.90
54431;DHT22;40342;52.998;5.862;2023-09-19T02:26:20;13.20;99.90
54431;DHT22;40342;52.998;5.862;2023-09-19T02:28:46;13.20;99.90
54431;DHT22;40342;52.998;5.862;2023-09-19T02:31:11;13.20;99.90
54431;DHT22;40342;52.998;5.862;2023-09-19T02:33:37;13.20;99.90
54431;DHT22;40342;52.998;5.862;2023-09-19T02:36:03;13.30;99.90
54431;DHT22;40342;52.998;5.862;2023-09-19T02:38:32;13.30;99.90
54431;DHT22;40342;52.998;5.862;2023-09-19T02:40:58;13.30;99.90
54431;DHT22;40342;52.998;5.862;2023-09-19T02:43:24;13.40;99.90
54431;DHT22;40342;52.998;5.862;2023-09-19T02:45:49;13.40;99.90
54431;DHT22;40342;52.998;5.862;2023-09-19T02:48:15;13.40;99.90
54431;DHT22;40342;52.998;5.862;2023-09-19T02:50:41;13.40;99.90
54431;DHT22;40342;52.998;5.862;2023-09-19T02:53:07;13.30;99.90
54431;DHT22;40342;52.998;5.862;2023-09-19T02:55:33;13.30;99.90
54431;DHT22;40342;52.998;5.862;2023-09-19T02:57:59;13.30;99.90
54431;DHT22;40342;52.998;5.862;2023-09-19T03:00:25;13.30;99.90
54431;DHT22;40342;52.998;5.862;2023-09-19T03:02:53;13.30;99.90
54431;DHT22;40342;52.998;5.862;2023-09-19T03:05:19;13.20;99.90
54431;DHT22;40342;52.998;5.862;2023-09-19T03:07:44;13.20;99.90
54431;DHT22;40342;52.998;5.862;2023-09-19T03:10:12;13.20;99.90
54431;DHT22;40342;52.998;5.862;2023-09-19T03:12:37;13.20;99.90
54431;DHT22;40342;52.998;5.862;2023-09-19T03:15:04;13.20;99.90
54431;DHT22;40342;52.998;5.862;2023-09-19T03:17:30;13.10;99.90
54431;DHT22;40342;52.998;5.862;2023-09-19T03:19:56;13.10;99.90
54431;DHT22;40342;52.998;5.862;2023-09-19T03:22:22;13.10;99.90
54431;DHT22;40342;52.998;5.862;2023-09-19T03:24:47;13.10;99.90
54431;DHT22;40342;52.998;5.862;2023-09-19T03:27:13;13.10;99.90
54431;DHT22;40342;52.998;5.862;2023-09-19T03:29:42;13.10;99.90
54431;DHT22;40342;52.998;5.862;2023-09-19T03:32:07;13.10;99.90
54431;DHT22;40342;52.998;5.862;2023-09-19T03:34:36;13.20;99.90
54431;DHT22;40342;52.998;5.862;2023-09-19T03:37:02;13.20;99.90
54431;DHT22;40342;52.998;5.862;2023-09-19T03:39:29;13.30;99.90
54431;DHT22;40342;52.998;5.862;2023-09-19T03:41:54;13.30;99.90
54431;DHT22;40342;52.998;5.862;2023-09-19T03:44:19;13.40;99.90
54431;DHT22;40342;52.998;5.862;2023-09-19T03:46:45;13.40;99.90
54431;DHT22;40342;52.998;5.862;2023-09-19T03:49:10;13.50;99.90
54431;DHT22;40342;52.998;5.862;2023-09-19T03:51:36;13.50;99.90
54431;DHT22;40342;52.998;5.862;2023-09-19T03:54:02;13.60;99.90
54431;DHT22;40342;52.998;5.862;2023-09-19T03:56:29;13.50;99.90
54431;DHT22;40342;52.998;5.862;2023-09-19T03:58:54;13.60;99.90
54431;DHT22;40342;52.998;5.862;2023-09-19T04:01:20;13.60;99.90
54431;DHT22;40342;52.998;5.862;2023-09-19T04:03:46;13.60;99.90
54431;DHT22;40342;52.998;5.862;2023-09-19T04:06:15;13.70;99.90
54431;DHT22;40342;52.998;5.862;2023-09-19T04:08:41;13.70;99.90
54431;DHT22;40342;52.998;5.862;2023-09-19T04:11:07;13.70;99.90
54431;DHT22;40342;52.998;5.862;2023-09-19T04:13:32;13.70;99.90
54431;DHT22;40342;52.998;5.862;2023-09-19T04:15:58;13.70;99.90
54431;DHT22;40342;52.998;5.862;2023-09-19T04:18:23;13.70;99.90
54431;DHT22;40342;52.998;5.862;2023-09-19T04:20:49;13.70;99.90
54431;DHT22;40342;52.998;5.862;2023-09-19T04:23:15;13.80;99.90
54431;DHT22;40342;52.998;5.862;2023-09-19T04:25:41;13.70;99.90
54431;DHT22;40342;52.998;5.862;2023-09-19T04:28:06;13.80;99.90
54431;DHT22;40342;52.998;5.862;2023-09-19T04:30:32;13.80;99.90
54431;DHT22;40342;52.998;5.862;2023-09-19T04:32:57;13.80;99.90
54431;DHT22;40342;52.998;5.862;2023-09-19T04:35:23;13.80;99.90
54431;DHT22;40342;52.998;5.862;2023-09-19T04:37:48;13.90;99.90
54431;DHT22;40342;52.998;5.862;2023-09-19T04:40:15;13.90;99.90
54431;DHT22;40342;52.998;5.862;2023-09-19T04:42:43;13.90;99.90
54431;DHT22;40342;52.998;5.862;2023-09-19T04:45:08;13.90;99.90
54431;DHT22;40342;52.998;5.862;2023-09-19T04:47:37;13.80;99.90
54431;DHT22;40342;52.998;5.862;2023-09-19T04:50:07;13.90;99.90
54431;DHT22;40342;52.998;5.862;2023-09-19T04:52:33;13.90;99.90
54431;DHT22;40342;52.998;5.862;2023-09-19T04:54:59;13.90;99.90
54431;DHT22;40342;52.998;5.862;2023-09-19T04:57:24;13.90;99.90
54431;DHT22;40342;52.998;5.862;2023-09-19T04:59:51;13.90;99.90
54431;DHT22;40342;52.998;5.862;2023-09-19T05:02:16;13.90;99.90
54431;DHT22;40342;52.998;5.862;2023-09-19T05:04:42;13.90;99.90
54431;DHT22;40342;52.998;5.862;2023-09-19T05:07:08;13.90;99.90
54431;DHT22;40342;52.998;5.862;2023-09-19T05:09:34;13.90;99.90
54431;DHT22;40342;52.998;5.862;2023-09-19T05:12:00;14.00;99.90
54431;DHT22;40342;52.998;5.862;2023-09-19T05:14:25;14.00;99.90
54431;DHT22;40342;52.998;5.862;2023-09-19T05:16:51;14.00;99.90
54431;DHT22;40342;52.998;5.862;2023-09-19T05:19:16;14.00;99.90
54431;DHT22;40342;52.998;5.862;2023-09-19T05:21:42;14.00;99.90
54431;DHT22;40342;52.998;5.862;2023-09-19T05:24:07;14.00;99.90
54431;DHT22;40342;52.998;5.862;2023-09-19T05:26:33;14.00;99.90
54431;DHT22;40342;52.998;5.862;2023-09-19T05:28:58;14.00;99.90
54431;DHT22;40342;52.998;5.862;2023-09-19T05:31:24;14.00;99.90
54431;DHT22;40342;52.998;5.862;2023-09-19T05:33:51;14.00;99.90
54431;DHT22;40342;52.998;5.862;2023-09-19T05:36:16;14.00;99.90
54431;DHT22;40342;52.998;5.862;2023-09-19T05:38:42;13.90;99.90
54431;DHT22;40342;52.998;5.862;2023-09-19T05:41:09;14.00;99.90
54431;DHT22;40342;52.998;5.862;2023-09-19T05:43:39;13.90;99.90
54431;DHT22;40342;52.998;5.862;2023-09-19T05:46:06;13.90;99.90
54431;DHT22;40342;52.998;5.862;2023-09-19T05:48:33;13.90;99.90
54431;DHT22;40342;52.998;5.862;2023-09-19T05:50:59;13.90;99.90
54431;DHT22;40342;52.998;5.862;2023-09-19T05:53:24;13.90;99.90
54431;DHT22;40342;52.998;5.862;2023-09-19T05:55:50;13.90;99.90
54431;DHT22;40342;52.998;5.862;2023-09-19T05:58:17;14.00;99.90
54431;DHT22;40342;52.998;5.862;2023-09-19T06:00:43;13.90;99.90
54431;DHT22;40342;52.998;5.862;2023-09-19T06:03:09;14.00;99.90
54431;DHT22;40342;52.998;5.862;2023-09-19T06:05:35;14.00;99.90
54431;DHT22;40342;52.998;5.862;2023-09-19T06:08:00;13.90;99.90
54431;DHT22;40342;52.998;5.862;2023-09-19T06:10:26;13.90;99.90
54431;DHT22;40342;52.998;5.862;2023-09-19T06:12:53;14.00;99.90
54431;DHT22;40342;52.998;5.862;2023-09-19T06:15:20;14.00;99.90
54431;DHT22;40342;52.998;5.862;2023-09-19T06:17:55;14.00;99.90
54431;DHT22;40342;52.998;5.862;2023-09-19T06:20:21;14.00;99.90
54431;DHT22;40342;52.998;5.862;2023-09-19T06:22:48;14.00;99.90
54431;DHT22;40342;52.998;5.862;2023-09-19T06:25:15;14.00;99.90
54431;DHT22;40342;52.998;5.862;2023-09-19T06:27:51;14.00;99.90
54431;DHT22;40342;52.998;5.862;2023-09-19T06:30:19;14.00;99.90
54431;DHT22;40342;52.998;5.862;2023-09-19T06:32:44;14.00;99.90
54431;DHT22;40342;52.998;5.862;2023-09-19T06:35:10;14.00;99.90
54431;DHT22;40342;52.998;5.862;2023-09-19T06:37:36;14.00;99.90
54431;DHT22;40342;52.998;5.862;2023-09-19T06:40:08;14.10;99.90
54431;DHT22;40342;52.998;5.862;2023-09-19T06:42:39;14.10;99.90
54431;DHT22;40342;52.998;5.862;2023-09-19T06:45:04;14.20;99.90
54431;DHT22;40342;52.998;5.862;2023-09-19T06:47:30;14.20;99.90
54431;DHT22;40342;52.998;5.862;2023-09-19T06:49:56;14.30;99.90
54431;DHT22;40342;52.998;5.862;2023-09-19T06:52:21;14.40;99.90
54431;DHT22;40342;52.998;5.862;2023-09-19T06:54:47;14.40;99.90
54431;DHT22;40342;52.998;5.862;2023-09-19T06:57:16;14.40;99.90
54431;DHT22;40342;52.998;5.862;2023-09-19T06:59:41;14.60;99.90
54431;DHT22;40342;52.998;5.862;2023-09-19T07:02:06;14.60;99.90
54431;DHT22;40342;52.998;5.862;2023-09-19T07:04:33;14.70;99.90
54431;DHT22;40342;52.998;5.862;2023-09-19T07:06:59;14.80;99.90
54431;DHT22;40342;52.998;5.862;2023-09-19T07:09:24;14.90;99.90
54431;DHT22;40342;52.998;5.862;2023-09-19T07:11:52;14.90;99.90
54431;DHT22;40342;52.998;5.862;2023-09-19T07:14:18;15.00;99.90
54431;DHT22;40342;52.998;5.862;2023-09-19T07:16:44;15.40;99.90
54431;DHT22;40342;52.998;5.862;2023-09-19T07:19:10;15.10;99.90
54431;DHT22;40342;52.998;5.862;2023-09-19T07:21:35;15.20;99.90
54431;DHT22;40342;52.998;5.862;2023-09-19T07:24:01;15.20;99.90
54431;DHT22;40342;52.998;5.862;2023-09-19T07:26:28;15.20;99.90
54431;DHT22;40342;52.998;5.862;2023-09-19T07:28:54;15.20;99.90
54431;DHT22;40342;52.998;5.862;2023-09-19T07:31:20;15.20;99.90
54431;DHT22;40342;52.998;5.862;2023-09-19T07:33:45;15.10;99.90
54431;DHT22;40342;52.998;5.862;2023-09-19T07:36:11;15.20;99.90
54431;DHT22;40342;52.998;5.862;2023-09-19T07:38:39;15.20;99.90
54431;DHT22;40342;52.998;5.862;2023-09-19T07:41:04;15.20;99.90
54431;DHT22;40342;52.998;5.862;2023-09-19T07:43:30;15.30;99.90
54431;DHT22;40342;52.998;5.862;2023-09-19T07:45:56;15.30;99.90
54431;DHT22;40342;52.998;5.862;2023-09-19T07:48:22;15.30;99.90
54431;DHT22;40342;52.998;5.862;2023-09-19T07:50:49;15.30;99.90
54431;DHT22;40342;52.998;5.862;2023-09-19T07:53:15;15.30;99.90
54431;DHT22;40342;52.998;5.862;2023-09-19T07:55:42;15.30;99.90
54431;DHT22;40342;52.998;5.862;2023-09-19T07:58:08;15.30;99.90
54431;DHT22;40342;52.998;5.862;2023-09-19T08:00:34;15.30;99.90
54431;DHT22;40342;52.998;5.862;2023-09-19T08:03:00;15.30;99.90
54431;DHT22;40342;52.998;5.862;2023-09-19T08:05:26;15.40;99.90
54431;DHT22;40342;52.998;5.862;2023-09-19T08:07:51;15.40;99.90
54431;DHT22;40342;52.998;5.862;2023-09-19T08:10:18;15.40;99.90
54431;DHT22;40342;52.998;5.862;2023-09-19T08:12:45;15.50;99.90
54431;DHT22;40342;52.998;5.862;2023-09-19T08:15:19;15.60;99.90
54431;DHT22;40342;52.998;5.862;2023-09-19T08:17:45;15.70;99.90
54431;DHT22;40342;52.998;5.862;2023-09-19T08:20:11;15.70;99.90
54431;DHT22;40342;52.998;5.862;2023-09-19T08:22:48;15.80;99.90
54431;DHT22;40342;52.998;5.862;2023-09-19T08:25:17;15.80;99.90
54431;DHT22;40342;52.998;5.862;2023-09-19T08:27:43;15.90;99.90
54431;DHT22;40342;52.998;5.862;2023-09-19T08:30:13;15.90;99.90
54431;DHT22;40342;52.998;5.862;2023-09-19T08:32:38;16.00;99.90
54431;DHT22;40342;52.998;5.862;2023-09-19T08:35:04;16.00;99.90
54431;DHT22;40342;52.998;5.862;2023-09-19T08:37:30;16.10;99.90
54431;DHT22;40342;52.998;5.862;2023-09-19T08:39:55;16.10;99.90
54431;DHT22;40342;52.998;5.862;2023-09-19T08:42:21;16.20;99.90
54431;DHT22;40342;52.998;5.862;2023-09-19T08:44:46;16.20;99.90
54431;DHT22;40342;52.998;5.862;2023-09-19T08:47:15;16.10;99.90
54431;DHT22;40342;52.998;5.862;2023-09-19T08:52:28;16.20;99.90
54431;DHT22;40342;52.998;5.862;2023-09-19T08:54:54;16.20;99.90
54431;DHT22;40342;52.998;5.862;2023-09-19T08:57:24;16.20;99.90
54431;DHT22;40342;52.998;5.862;2023-09-19T08:59:51;16.30;99.90
54431;DHT22;40342;52.998;5.862;2023-09-19T09:02:16;16.40;99.90
54431;DHT22;40342;52.998;5.862;2023-09-19T09:04:45;16.40;99.90
54431;DHT22;40342;52.998;5.862;2023-09-19T09:07:11;16.50;99.90
54431;DHT22;40342;52.998;5.862;2023-09-19T09:09:38;16.60;99.90
54431;DHT22;40342;52.998;5.862;2023-09-19T09:12:09;16.70;99.90
54431;DHT22;40342;52.998;5.862;2023-09-19T09:14:35;16.70;99.90
54431;DHT22;40342;52.998;5.862;2023-09-19T09:17:00;16.70;99.90
54431;DHT22;40342;52.998;5.862;2023-09-19T09:19:26;16.70;99.90
54431;DHT22;40342;52.998;5.862;2023-09-19T09:21:52;16.80;99.90
54431;DHT22;40342;52.998;5.862;2023-09-19T09:24:35;16.80;99.90
54431;DHT22;40342;52.998;5.862;2023-09-19T09:27:03;16.80;99.90
54431;DHT22;40342;52.998;5.862;2023-09-19T09:29:43;16.80;99.90
54431;DHT22;40342;52.998;5.862;2023-09-19T09:34:45;16.60;99.90
54431;DHT22;40342;52.998;5.862;2023-09-19T09:37:14;16.70;99.90
54431;DHT22;40342;52.998;5.862;2023-09-19T09:39:40;16.70;99.90
54431;DHT22;40342;52.998;5.862;2023-09-19T09:42:29;16.80;99.90
54431;DHT22;40342;52.998;5.862;2023-09-19T09:47:45;17.00;99.90
54431;DHT22;40342;52.998;5.862;2023-09-19T09:52:55;17.00;99.90
54431;DHT22;40342;52.998;5.862;2023-09-19T09:55:27;17.10;99.90
54431;DHT22;40342;52.998;5.862;2023-09-19T10:00:51;17.10;99.90
54431;DHT22;40342;52.998;5.862;2023-09-19T10:03:21;17.20;99.90
54431;DHT22;40342;52.998;5.862;2023-09-19T10:05:53;17.10;99.90
54431;DHT22;40342;52.998;5.862;2023-09-19T10:08:20;17.10;99.90
54431;DHT22;40342;52.998;5.862;2023-09-19T10:10:46;17.10;99.90
54431;DHT22;40342;52.998;5.862;2023-09-19T10:13:17;17.00;99.90
54431;DHT22;40342;52.998;5.862;2023-09-19T10:15:51;17.00;99.90
54431;DHT22;40342;52.998;5.862;2023-09-19T10:18:25;17.00;99.90
54431;DHT22;40342;52.998;5.862;2023-09-19T10:20:52;17.00;99.90
54431;DHT22;40342;52.998;5.862;2023-09-19T10:23:19;17.00;99.90
54431;DHT22;40342;52.998;5.862;2023-09-19T10:25:48;17.10;99.90
54431;DHT22;40342;52.998;5.862;2023-09-19T10:28:15;17.10;99.90
54431;DHT22;40342;52.998;5.862;2023-09-19T10:30:44;17.20;99.90
54431;DHT22;40342;52.998;5.862;2023-09-19T10:33:11;17.10;99.90
54431;DHT22;40342;52.998;5.862;2023-09-19T10:35:37;17.00;99.90
54431;DHT22;40342;52.998;5.862;2023-09-19T10:38:06;16.90;99.90
54431;DHT22;40342;52.998;5.862;2023-09-19T10:40:32;16.90;99.90
54431;DHT22;40342;52.998;5.862;2023-09-19T10:43:04;16.80;99.90
54431;DHT22;40342;52.998;5.862;2023-09-19T10:45:31;16.80;99.90
54431;DHT22;40342;52.998;5.862;2023-09-19T10:47:57;16.80;99.90
54431;DHT22;40342;52.998;5.862;2023-09-19T10:50:22;16.80;99.90
54431;DHT22;40342;52.998;5.862;2023-09-19T10:52:49;16.80;99.90
54431;DHT22;40342;52.998;5.862;2023-09-19T10:55:24;16.70;99.90
54431;DHT22;40342;52.998;5.862;2023-09-19T10:57:50;16.80;99.90
54431;DHT22;40342;52.998;5.862;2023-09-19T11:00:17;16.70;99.90
54431;DHT22;40342;52.998;5.862;2023-09-19T11:05:34;16.80;99.90
54431;DHT22;40342;52.998;5.862;2023-09-19T11:08:00;16.90;99.90
54431;DHT22;40342;52.998;5.862;2023-09-19T11:10:46;17.00;99.90
54431;DHT22;40342;52.998;5.862;2023-09-19T11:13:26;17.20;99.90
54431;DHT22;40342;52.998;5.862;2023-09-19T11:26:41;17.30;99.90
54431;DHT22;40342;52.998;5.862;2023-09-19T11:29:25;17.30;99.90
54431;DHT22;40342;52.998;5.862;2023-09-19T11:31:51;17.20;99.90
54431;DHT22;40342;52.998;5.862;2023-09-19T11:37:02;17.10;99.90
54431;DHT22;40342;52.998;5.862;2023-09-19T11:39:31;17.10;99.90
54431;DHT22;40342;52.998;5.862;2023-09-19T11:41:58;17.10;99.90
54431;DHT22;40342;52.998;5.862;2023-09-19T11:46:55;17.10;99.90
54431;DHT22;40342;52.998;5.862;2023-09-19T11:49:29;17.10;99.90
54431;DHT22;40342;52.998;5.862;2023-09-19T11:51:58;17.10;99.90
54431;DHT22;40342;52.998;5.862;2023-09-19T11:54:30;17.00;99.90
54431;DHT22;40342;52.998;5.862;2023-09-19T11:56:59;17.00;99.90
54431;DHT22;40342;52.998;5.862;2023-09-19T11:59:31;16.90;99.90
54431;DHT22;40342;52.998;5.862;2023-09-19T12:02:00;16.80;99.90
54431;DHT22;40342;52.998;5.862;2023-09-19T12:04:39;16.70;99.90
54431;DHT22;40342;52.998;5.862;2023-09-19T12:07:07;16.60;99.90
54431;DHT22;40342;52.998;5.862;2023-09-19T12:09:38;16.60;99.90
54431;DHT22;40342;52.998;5.862;2023-09-19T12:12:04;16.70;99.90
54431;DHT22;40342;52.998;5.862;2023-09-19T12:14:29;16.90;99.90
54431;DHT22;40342;52.998;5.862;2023-09-19T12:16:56;17.10;99.90
54431;DHT22;40342;52.998;5.862;2023-09-19T12:19:22;17.30;99.90
54431;DHT22;40342;52.998;5.862;2023-09-19T12:21:55;17.40;99.90
54431;DHT22;40342;52.998;5.862;2023-09-19T12:24:23;17.50;99.90
54431;DHT22;40342;52.998;5.862;2023-09-19T12:26:51;17.50;99.90
54431;DHT22;40342;52.998;5.862;2023-09-19T12:29:19;17.50;99.90
54431;DHT22;40342;52.998;5.862;2023-09-19T12:31:48;17.50;99.90
54431;DHT22;40342;52.998;5.862;2023-09-19T12:34:16;17.50;99.90
54431;DHT22;40342;52.998;5.862;2023-09-19T12:36:42;17.40;99.90
54431;DHT22;40342;52.998;5.862;2023-09-19T12:39:07;17.40;99.90
54431;DHT22;40342;52.998;5.862;2023-09-19T12:41:34;17.40;99.90
54431;DHT22;40342;52.998;5.862;2023-09-19T12:44:00;17.40;99.90
54431;DHT22;40342;52.998;5.862;2023-09-19T12:46:26;17.40;99.90
54431;DHT22;40342;52.998;5.862;2023-09-19T12:51:37;17.20;99.90
54431;DHT22;40342;52.998;5.862;2023-09-19T12:54:03;17.10;99.90
54431;DHT22;40342;52.998;5.862;2023-09-19T12:56:30;16.90;99.90
54431;DHT22;40342;52.998;5.862;2023-09-19T12:59:04;16.80;99.90
54431;DHT22;40342;52.998;5.862;2023-09-19T13:01:29;16.70;99.90
54431;DHT22;40342;52.998;5.862;2023-09-19T13:06:46;16.60;99.90
54431;DHT22;40342;52.998;5.862;2023-09-19T13:09:14;16.60;99.90
54431;DHT22;40342;52.998;5.862;2023-09-19T13:11:40;16.70;99.90
54431;DHT22;40342;52.998;5.862;2023-09-19T13:14:14;16.80;99.90
54431;DHT22;40342;52.998;5.862;2023-09-19T13:19:37;16.80;99.90
54431;DHT22;40342;52.998;5.862;2023-09-19T13:22:05;16.90;99.90
54431;DHT22;40342;52.998;5.862;2023-09-19T13:24:50;16.90;99.90
54431;DHT22;40342;52.998;5.862;2023-09-19T13:27:16;17.00;99.90
54431;DHT22;40342;52.998;5.862;2023-09-19T13:29:42;17.10;99.90
54431;DHT22;40342;52.998;5.862;2023-09-19T13:32:07;17.10;99.90
54431;DHT22;40342;52.998;5.862;2023-09-19T13:34:36;17.20;99.90
54431;DHT22;40342;52.998;5.862;2023-09-19T13:37:03;17.30;99.90
54431;DHT22;40342;52.998;5.862;2023-09-19T13:39:29;17.30;99.90
54431;DHT22;40342;52.998;5.862;2023-09-19T13:41:55;17.30;99.90
54431;DHT22;40342;52.998;5.862;2023-09-19T13:44:20;17.30;99.90
54431;DHT22;40342;52.998;5.862;2023-09-19T13:46:46;17.30;99.90
54431;DHT22;40342;52.998;5.862;2023-09-19T13:49:12;17.30;99.90
54431;DHT22;40342;52.998;5.862;2023-09-19T13:51:37;17.30;99.90
54431;DHT22;40342;52.998;5.862;2023-09-19T13:54:03;17.30;99.90
54431;DHT22;40342;52.998;5.862;2023-09-19T13:56:28;17.30;99.90
54431;DHT22;40342;52.998;5.862;2023-09-19T13:58:55;17.30;99.90
54431;DHT22;40342;52.998;5.862;2023-09-19T14:01:21;17.20;99.90
54431;DHT22;40342;52.998;5.862;2023-09-19T14:03:46;17.20;99.90
54431;DHT22;40342;52.998;5.862;2023-09-19T14:06:14;17.20;99.90
54431;DHT22;40342;52.998;5.862;2023-09-19T14:08:40;17.00;99.90
54431;DHT22;40342;52.998;5.862;2023-09-19T14:11:06;17.00;99.90
54431;DHT22;40342;52.998;5.862;2023-09-19T14:13:32;16.90;99.90
54431;DHT22;40342;52.998;5.862;2023-09-19T14:15:57;17.00;99.90
54431;DHT22;40342;52.998;5.862;2023-09-19T14:18:23;17.00;99.90
54431;DHT22;40342;52.998;5.862;2023-09-19T14:20:48;17.00;99.90
54431;DHT22;40342;52.998;5.862;2023-09-19T14:23:15;17.00;99.90
54431;DHT22;40342;52.998;5.862;2023-09-19T14:25:40;17.10;99.90
54431;DHT22;40342;52.998;5.862;2023-09-19T14:28:06;17.10;99.90
54431;DHT22;40342;52.998;5.862;2023-09-19T14:30:34;17.10;99.90
54431;DHT22;40342;52.998;5.862;2023-09-19T14:32:59;17.20;99.90
54431;DHT22;40342;52.998;5.862;2023-09-19T14:35:25;17.20;99.90
54431;DHT22;40342;52.998;5.862;2023-09-19T14:37:50;17.20;99.90
54431;DHT22;40342;52.998;5.862;2023-09-19T14:40:16;17.20;99.90
54431;DHT22;40342;52.998;5.862;2023-09-19T14:42:43;17.20;99.90
54431;DHT22;40342;52.998;5.862;2023-09-19T14:45:10;17.20;99.90
54431;DHT22;40342;52.998;5.862;2023-09-19T14:47:37;17.20;99.90
54431;DHT22;40342;52.998;5.862;2023-09-19T14:50:03;17.30;99.90
54431;DHT22;40342;52.998;5.862;2023-09-19T14:52:32;17.30;99.90
54431;DHT22;40342;52.998;5.862;2023-09-19T14:54:57;17.30;99.90
54431;DHT22;40342;52.998;5.862;2023-09-19T14:57:23;18.30;99.90
54431;DHT22;40342;52.998;5.862;2023-09-19T14:59:49;17.30;99.90
54431;DHT22;40342;52.998;5.862;2023-09-19T15:02:16;17.30;99.90
54431;DHT22;40342;52.998;5.862;2023-09-19T15:04:42;17.30;99.90
54431;DHT22;40342;52.998;5.862;2023-09-19T15:07:12;17.20;99.90
54431;DHT22;40342;52.998;5.862;2023-09-19T15:09:38;17.20;99.90
54431;DHT22;40342;52.998;5.862;2023-09-19T15:12:04;17.20;99.90
54431;DHT22;40342;52.998;5.862;2023-09-19T15:14:30;17.20;99.90
54431;DHT22;40342;52.998;5.862;2023-09-19T15:16:55;17.20;99.90
54431;DHT22;40342;52.998;5.862;2023-09-19T15:19:21;17.10;99.90
54431;DHT22;40342;52.998;5.862;2023-09-19T15:21:48;17.10;99.90
54431;DHT22;40342;52.998;5.862;2023-09-19T15:24:13;17.10;99.90
54431;DHT22;40342;52.998;5.862;2023-09-19T15:26:39;17.10;99.90
54431;DHT22;40342;52.998;5.862;2023-09-19T15:29:05;17.10;99.90
54431;DHT22;40342;52.998;5.862;2023-09-19T15:31:31;17.00;99.90
54431;DHT22;40342;52.998;5.862;2023-09-19T15:33:57;16.90;99.90
54431;DHT22;40342;52.998;5.862;2023-09-19T15:36:22;16.90;99.90
54431;DHT22;40342;52.998;5.862;2023-09-19T15:41:23;16.70;99.90
54431;DHT22;40342;52.998;5.862;2023-09-19T15:43:49;16.60;99.90
54431;DHT22;40342;52.998;5.862;2023-09-19T15:46:14;16.60;99.90
54431;DHT22;40342;52.998;5.862;2023-09-19T15:48:40;16.50;99.90
54431;DHT22;40342;52.998;5.862;2023-09-19T15:51:06;16.50;99.90
54431;DHT22;40342;52.998;5.862;2023-09-19T15:53:42;16.50;99.90
54431;DHT22;40342;52.998;5.862;2023-09-19T15:56:08;16.40;99.90
54431;DHT22;40342;52.998;5.862;2023-09-19T15:58:35;16.40;99.90
54431;DHT22;40342;52.998;5.862;2023-09-19T16:01:04;16.30;99.90
54431;DHT22;40342;52.998;5.862;2023-09-19T16:03:30;16.30;99.90
54431;DHT22;40342;52.998;5.862;2023-09-19T16:05:56;16.30;99.90
54431;DHT22;40342;52.998;5.862;2023-09-19T16:08:21;16.20;99.90
54431;DHT22;40342;52.998;5.862;2023-09-19T16:10:47;16.20;99.90
54431;DHT22;40342;52.998;5.862;2023-09-19T16:13:13;16.20;99.90
54431;DHT22;40342;52.998;5.862;2023-09-19T16:15:41;16.20;99.90
54431;DHT22;40342;52.998;5.862;2023-09-19T16:18:09;16.20;99.90